sensor_id;sensor_type;location;lat;lon;timestamp;pressure;altitude;pressure_sealevel;temperature;humidity
15272;BME280;7737;51.578;7.268;2023-03-16T00:00:40;101441.25;;;3.04;100.00
15272;BME280;7737;51.578;7.268;2023-03-16T00:03:07;101428.09;;;3.09;100.00
15272;BME280;7737;51.578;7.268;2023-03-16T00:05:33;101420.09;;;3.21;100.00
15272;BME280;7737;51.578;7.268;2023-03-16T00:08:00;101420.97;;;3.25;100.00
15272;BME280;7737;51.578;7.268;2023-03-16T00:10:27;101420.94;;;3.28;100.00
15272;BME280;7737;51.578;7.268;2023-03-16T00:12:55;101419.22;;;3.21;100.00
15272;BME280;7737;51.578;7.268;2023-03-16T00:15:22;101415.78;;;3.13;100.00
15272;BME280;7737;51.578;7.268;2023-03-16T00:17:49;101419.31;;;3.12;100.00
15272;BME280;7737;51.578;7.268;2023-03-16T00:20:16;101414.06;;;3.12;100.00
15272;BME280;7737;51.578;7.268;2023-03-16T00:22:44;101421.91;;;3.18;100.00
15272;BME280;7737;51.578;7.268;2023-03-16T00:25:12;101411.47;;;3.05;100.00
15272;BME280;7737;51.578;7.268;2023-03-16T00:27:39;101406.97;;;3.23;100.00
15272;BME280;7737;51.578;7.268;2023-03-16T00:30:09;101405.28;;;3.13;100.00
15272;BME280;7737;51.578;7.268;2023-03-16T00:32:36;101399.13;;;3.15;100.00
15272;BME280;7737;51.578;7.268;2023-03-16T00:35:04;101412.41;;;3.01;100.00
15272;BME280;7737;51.578;7.268;2023-03-16T00:37:31;101417.50;;;3.20;100.00
15272;BME280;7737;51.578;7.268;2023-03-16T00:39:58;101411.44;;;3.10;100.00
15272;BME280;7737;51.578;7.268;2023-03-16T00:42:26;101414.94;;;3.11;100.00
15272;BME280;7737;51.578;7.268;2023-03-16T00:44:53;101413.22;;;3.10;100.00
15272;BME280;7737;51.578;7.268;2023-03-16T00:47:24;101401.91;;;3.01;100.00
15272;BME280;7737;51.578;7.268;2023-03-16T00:49:51;101401.81;;;3.07;100.00
15272;BME280;7737;51.578;7.268;2023-03-16T00:52:18;101399.31;;;2.95;100.00
15272;BME280;7737;51.578;7.268;2023-03-16T00:54:48;101410.66;;;2.97;100.00
15272;BME280;7737;51.578;7.268;2023-03-16T00:57:17;101416.75;;;3.02;100.00
15272;BME280;7737;51.578;7.268;2023-03-16T00:59:44;101421.13;;;3.06;100.00
15272;BME280;7737;51.578;7.268;2023-03-16T01:02:11;101417.66;;;3.01;100.00
15272;BME280;7737;51.578;7.268;2023-03-16T01:04:40;101426.38;;;3.06;100.00
15272;BME280;7737;51.578;7.268;2023-03-16T01:07:07;101428.09;;;3.09;100.00
15272;BME280;7737;51.578;7.268;2023-03-16T01:09:35;101428.97;;;3.08;100.00
15272;BME280;7737;51.578;7.268;2023-03-16T01:12:02;101428.09;;;3.07;100.00
15272;BME280;7737;51.578;7.268;2023-03-16T01:14:30;101414.03;;;3.15;100.00
15272;BME280;7737;51.578;7.268;2023-03-16T01:16:56;101408.78;;;3.18;100.00
15272;BME280;7737;51.578;7.268;2023-03-16T01:19:23;101411.41;;;3.18;100.00
15272;BME280;7737;51.578;7.268;2023-03-16T01:21:51;101407.88;;;3.20;100.00
15272;BME280;7737;51.578;7.268;2023-03-16T01:24:17;101402.53;;;3.29;100.00
15272;BME280;7737;51.578;7.268;2023-03-16T01:26:44;101403.50;;;3.18;100.00
15272;BME280;7737;51.578;7.268;2023-03-16T01:29:10;101396.50;;;3.17;100.00
15272;BME280;7737;51.578;7.268;2023-03-16T01:31:37;101399.94;;;3.25;100.00
15272;BME280;7737;51.578;7.268;2023-03-16T01:34:04;101392.94;;;3.24;100.00
15272;BME280;7737;51.578;7.268;2023-03-16T01:36:30;101381.53;;;3.28;100.00
15272;BME280;7737;51.578;7.268;2023-03-16T01:38:58;101375.28;;;3.36;100.00
15272;BME280;7737;51.578;7.268;2023-03-16T01:41:25;101370.97;;;3.32;100.00
15272;BME280;7737;51.578;7.268;2023-03-16T01:43:52;101363.09;;;3.32;100.00
15272;BME280;7737;51.578;7.268;2023-03-16T01:46:24;101357.78;;;3.37;100.00
15272;BME280;7737;51.578;7.268;2023-03-16T01:49:00;101352.59;;;3.31;100.00
15272;BME280;7737;51.578;7.268;2023-03-16T01:51:32;101349.88;;;3.41;100.00
15272;BME280;7737;51.578;7.268;2023-03-16T01:54:05;101341.91;;;3.49;100.00
15272;BME280;7737;51.578;7.268;2023-03-16T01:56:37;101348.03;;;3.49;100.00
15272;BME280;7737;51.578;7.268;2023-03-16T01:59:09;101355.00;;;3.50;100.00
15272;BME280;7737;51.578;7.268;2023-03-16T02:01:37;101343.56;;;3.56;100.00
15272;BME280;7737;51.578;7.268;2023-03-16T02:04:10;101336.66;;;3.46;100.00
15272;BME280;7737;51.578;7.268;2023-03-16T02:06:38;101331.22;;;3.64;100.00
15272;BME280;7737;51.578;7.268;2023-03-16T02:09:06;101318.22;;;3.52;100.00
15272;BME280;7737;51.578;7.268;2023-03-16T02:11:33;101310.34;;;3.47;100.00
15272;BME280;7737;51.578;7.268;2023-03-16T02:14:05;101302.41;;;3.53;100.00
15272;BME280;7737;51.578;7.268;2023-03-16T02:16:33;101310.34;;;3.50;100.00
15272;BME280;7737;51.578;7.268;2023-03-16T02:18:59;101317.34;;;3.50;100.00
15272;BME280;7737;51.578;7.268;2023-03-16T02:21:30;101314.69;;;3.54;100.00
15272;BME280;7737;51.578;7.268;2023-03-16T02:24:00;101311.16;;;3.55;100.00
15272;BME280;7737;51.578;7.268;2023-03-16T02:26:33;101299.78;;;3.53;100.00
15272;BME280;7737;51.578;7.268;2023-03-16T02:29:13;101292.81;;;3.51;100.00
15272;BME280;7737;51.578;7.268;2023-03-16T02:31:43;101277.94;;;3.48;100.00
15272;BME280;7737;51.578;7.268;2023-03-16T02:34:11;101286.69;;;3.50;100.00
15272;BME280;7737;51.578;7.268;2023-03-16T02:36:39;101274.47;;;3.46;100.00
15272;BME280;7737;51.578;7.268;2023-03-16T02:39:06;101277.09;;;3.45;100.00
15272;BME280;7737;51.578;7.268;2023-03-16T02:41:33;101274.56;;;3.39;100.00
15272;BME280;7737;51.578;7.268;2023-03-16T02:44:04;101271.72;;;3.57;100.00
15272;BME280;7737;51.578;7.268;2023-03-16T02:46:32;101274.31;;;3.60;100.00
15272;BME280;7737;51.578;7.268;2023-03-16T02:49:05;101270.88;;;3.53;100.00
15272;BME280;7737;51.578;7.268;2023-03-16T02:51:32;101276.28;;;3.41;100.00
15272;BME280;7737;51.578;7.268;2023-03-16T02:53:59;101271.94;;;3.39;100.00
15272;BME280;7737;51.578;7.268;2023-03-16T02:56:25;101273.63;;;3.43;100.00
15272;BME280;7737;51.578;7.268;2023-03-16T02:58:52;101264.75;;;3.53;100.00
15272;BME280;7737;51.578;7.268;2023-03-16T03:01:19;101264.81;;;3.47;100.00
15272;BME280;7737;51.578;7.268;2023-03-16T03:03:45;101265.78;;;3.40;100.00
15272;BME280;7737;51.578;7.268;2023-03-16T03:06:13;101253.53;;;3.40;100.00
15272;BME280;7737;51.578;7.268;2023-03-16T03:08:40;101249.09;;;3.44;100.00
15272;BME280;7737;51.578;7.268;2023-03-16T03:11:07;101245.59;;;3.42;100.00
15272;BME280;7737;51.578;7.268;2023-03-16T03:13:34;101238.53;;;3.48;100.00
15272;BME280;7737;51.578;7.268;2023-03-16T03:16:02;101238.47;;;3.53;100.00
15272;BME280;7737;51.578;7.268;2023-03-16T03:18:29;101238.47;;;3.53;100.00
15272;BME280;7737;51.578;7.268;2023-03-16T03:20:55;101235.69;;;3.65;100.00
15272;BME280;7737;51.578;7.268;2023-03-16T03:23:23;101231.34;;;3.61;100.00
15272;BME280;7737;51.578;7.268;2023-03-16T03:25:49;101225.25;;;3.57;100.00
15272;BME280;7737;51.578;7.268;2023-03-16T03:28:16;101227.94;;;3.53;100.00
15272;BME280;7737;51.578;7.268;2023-03-16T03:30:42;101214.66;;;3.65;100.00
15272;BME280;7737;51.578;7.268;2023-03-16T03:33:09;101210.25;;;3.67;100.00
15272;BME280;7737;51.578;7.268;2023-03-16T03:35:35;101210.28;;;3.64;100.00
15272;BME280;7737;51.578;7.268;2023-03-16T03:38:02;101207.63;;;3.67;100.00
15272;BME280;7737;51.578;7.268;2023-03-16T03:40:30;101204.03;;;3.71;100.00
15272;BME280;7737;51.578;7.268;2023-03-16T03:42:56;101201.38;;;3.74;100.00
15272;BME280;7737;51.578;7.268;2023-03-16T03:45:23;101212.84;;;3.68;100.00
15272;BME280;7737;51.578;7.268;2023-03-16T03:47:49;101205.84;;;3.69;100.00
15272;BME280;7737;51.578;7.268;2023-03-16T03:50:16;101203.16;;;3.72;100.00
15272;BME280;7737;51.578;7.268;2023-03-16T03:52:43;101203.06;;;3.81;100.00
15272;BME280;7737;51.578;7.268;2023-03-16T03:55:09;101202.31;;;3.68;100.00
15272;BME280;7737;51.578;7.268;2023-03-16T03:57:37;101192.66;;;3.72;100.00
15272;BME280;7737;51.578;7.268;2023-03-16T04:00:07;101193.56;;;3.69;100.00
15272;BME280;7737;51.578;7.268;2023-03-16T04:02:36;101189.03;;;3.79;100.00
15272;BME280;7737;51.578;7.268;2023-03-16T04:05:02;101190.88;;;3.74;100.00
15272;BME280;7737;51.578;7.268;2023-03-16T04:07:29;101185.63;;;3.71;100.00
15272;BME280;7737;51.578;7.268;2023-03-16T04:09:55;101183.00;;;3.71;100.00
15272;BME280;7737;51.578;7.268;2023-03-16T04:12:22;101185.56;;;3.77;100.00
15272;BME280;7737;51.578;7.268;2023-03-16T04:14:50;101179.44;;;3.77;100.00
15272;BME280;7737;51.578;7.268;2023-03-16T04:17:16;101172.34;;;3.83;100.00
15272;BME280;7737;51.578;7.268;2023-03-16T04:19:43;101171.31;;;3.93;100.00
15272;BME280;7737;51.578;7.268;2023-03-16T04:22:09;101162.56;;;3.91;100.00
15272;BME280;7737;51.578;7.268;2023-03-16T04:24:37;101157.31;;;3.90;100.00
15272;BME280;7737;51.578;7.268;2023-03-16T04:27:03;101155.59;;;3.87;100.00
15272;BME280;7737;51.578;7.268;2023-03-16T04:29:30;101153.81;;;3.89;100.00
15272;BME280;7737;51.578;7.268;2023-03-16T04:31:58;101146.88;;;3.85;100.00
15272;BME280;7737;51.578;7.268;2023-03-16T04:34:25;101145.13;;;3.86;100.00
15272;BME280;7737;51.578;7.268;2023-03-16T04:36:52;101138.94;;;3.88;100.00
15272;BME280;7737;51.578;7.268;2023-03-16T04:39:18;101133.66;;;3.91;100.00
15272;BME280;7737;51.578;7.268;2023-03-16T04:41:45;101139.81;;;3.87;100.00
15272;BME280;7737;51.578;7.268;2023-03-16T04:44:12;101136.31;;;3.88;100.00
15272;BME280;7737;51.578;7.268;2023-03-16T04:46:39;101141.53;;;3.91;100.00
15272;BME280;7737;51.578;7.268;2023-03-16T04:49:07;101135.31;;;3.95;100.00
15272;BME280;7737;51.578;7.268;2023-03-16T04:51:34;101130.97;;;3.94;100.00
15272;BME280;7737;51.578;7.268;2023-03-16T04:54:01;101128.25;;;3.97;100.00
15272;BME280;7737;51.578;7.268;2023-03-16T04:56:28;101118.50;;;4.05;100.00
15272;BME280;7737;51.578;7.268;2023-03-16T04:58:55;101125.63;;;3.97;100.00
15272;BME280;7737;51.578;7.268;2023-03-16T05:01:22;101128.38;;;3.91;100.00
15272;BME280;7737;51.578;7.268;2023-03-16T05:03:49;101134.41;;;3.99;100.00
15272;BME280;7737;51.578;7.268;2023-03-16T05:06:18;101131.03;;;3.91;100.00
15272;BME280;7737;51.578;7.268;2023-03-16T05:08:44;101137.91;;;3.98;100.00
15272;BME280;7737;51.578;7.268;2023-03-16T05:11:11;101136.13;;;4.00;100.00
15272;BME280;7737;51.578;7.268;2023-03-16T05:13:37;101135.28;;;3.98;100.00
15272;BME280;7737;51.578;7.268;2023-03-16T05:16:04;101139.75;;;3.93;100.00
15272;BME280;7737;51.578;7.268;2023-03-16T05:18:31;101120.34;;;4.00;100.00
15272;BME280;7737;51.578;7.268;2023-03-16T05:20:58;101139.50;;;4.08;100.00
15272;BME280;7737;51.578;7.268;2023-03-16T05:23:25;101130.81;;;4.03;100.00
15272;BME280;7737;51.578;7.268;2023-03-16T05:25:52;101138.69;;;4.03;100.00
15272;BME280;7737;51.578;7.268;2023-03-16T05:28:18;101129.94;;;4.04;100.00
15272;BME280;7737;51.578;7.268;2023-03-16T05:30:45;101133.34;;;4.09;100.00
15272;BME280;7737;51.578;7.268;2023-03-16T05:33:12;101123.75;;;4.05;100.00
15272;BME280;7737;51.578;7.268;2023-03-16T05:35:38;101128.16;;;4.05;100.00
15272;BME280;7737;51.578;7.268;2023-03-16T05:38:05;101131.47;;;4.16;100.00
15272;BME280;7737;51.578;7.268;2023-03-16T05:40:34;101136.75;;;4.14;100.00
15272;BME280;7737;51.578;7.268;2023-03-16T05:43:01;101127.94;;;4.17;100.00
15272;BME280;7737;51.578;7.268;2023-03-16T05:45:28;101128.03;;;4.12;100.00
15272;BME280;7737;51.578;7.268;2023-03-16T05:47:55;101140.28;;;4.15;100.00
15272;BME280;7737;51.578;7.268;2023-03-16T05:50:22;101134.97;;;4.16;100.00
15272;BME280;7737;51.578;7.268;2023-03-16T05:52:50;101142.81;;;4.19;100.00
15272;BME280;7737;51.578;7.268;2023-03-16T05:55:17;101154.97;;;4.26;100.00
15272;BME280;7737;51.578;7.268;2023-03-16T05:57:45;101154.97;;;4.26;100.00
15272;BME280;7737;51.578;7.268;2023-03-16T06:00:13;101155.88;;;4.25;100.00
15272;BME280;7737;51.578;7.268;2023-03-16T06:02:41;101163.63;;;4.33;100.00
15272;BME280;7737;51.578;7.268;2023-03-16T06:05:08;101161.75;;;4.41;100.00
15272;BME280;7737;51.578;7.268;2023-03-16T06:07:35;101151.19;;;4.43;100.00
15272;BME280;7737;51.578;7.268;2023-03-16T06:10:02;101151.19;;;4.43;100.00
15272;BME280;7737;51.578;7.268;2023-03-16T06:12:29;101148.53;;;4.43;100.00
15272;BME280;7737;51.578;7.268;2023-03-16T06:14:57;101149.19;;;4.57;100.00
15272;BME280;7737;51.578;7.268;2023-03-16T06:17:24;101136.69;;;4.66;100.00
15272;BME280;7737;51.578;7.268;2023-03-16T06:19:50;101147.31;;;4.62;100.00
15272;BME280;7737;51.578;7.268;2023-03-16T06:22:17;101134.88;;;4.70;100.00
15272;BME280;7737;51.578;7.268;2023-03-16T06:24:43;101150.69;;;4.70;100.00
15272;BME280;7737;51.578;7.268;2023-03-16T06:27:11;101141.72;;;4.80;100.00
15272;BME280;7737;51.578;7.268;2023-03-16T06:29:37;101137.41;;;4.76;100.00
15272;BME280;7737;51.578;7.268;2023-03-16T06:32:05;101137.22;;;4.85;100.00
15272;BME280;7737;51.578;7.268;2023-03-16T06:34:32;101127.59;;;4.84;100.00
15272;BME280;7737;51.578;7.268;2023-03-16T06:36:58;101121.34;;;4.88;100.00
15272;BME280;7737;51.578;7.268;2023-03-16T06:39:25;101129.09;;;4.97;100.00
15272;BME280;7737;51.578;7.268;2023-03-16T06:41:51;101122.13;;;4.93;100.00
15272;BME280;7737;51.578;7.268;2023-03-16T06:44:18;101120.31;;;4.95;100.00
15272;BME280;7737;51.578;7.268;2023-03-16T06:46:45;101122.88;;;5.00;100.00
15272;BME280;7737;51.578;7.268;2023-03-16T06:49:13;101118.44;;;5.02;100.00
15272;BME280;7737;51.578;7.268;2023-03-16T06:51:39;101121.91;;;5.05;100.00
15272;BME280;7737;51.578;7.268;2023-03-16T06:54:07;101120.16;;;5.04;100.00
15272;BME280;7737;51.578;7.268;2023-03-16T06:56:33;101116.44;;;5.14;100.00
15272;BME280;7737;51.578;7.268;2023-03-16T06:59:00;101121.50;;;5.23;100.00
15272;BME280;7737;51.578;7.268;2023-03-16T07:01:26;101112.84;;;5.18;100.00
15272;BME280;7737;51.578;7.268;2023-03-16T07:03:53;101113.66;;;5.20;100.00
15272;BME280;7737;51.578;7.268;2023-03-16T07:06:21;101113.28;;;5.38;100.00
15272;BME280;7737;51.578;7.268;2023-03-16T07:08:48;101101.84;;;5.38;100.00
15272;BME280;7737;51.578;7.268;2023-03-16T07:11:15;101106.16;;;5.42;100.00
15272;BME280;7737;51.578;7.268;2023-03-16T07:13:42;101104.28;;;5.47;100.00
15272;BME280;7737;51.578;7.268;2023-03-16T07:16:08;101101.47;;;5.54;100.00
15272;BME280;7737;51.578;7.268;2023-03-16T07:18:35;101093.63;;;5.51;100.00
15272;BME280;7737;51.578;7.268;2023-03-16T07:21:02;101099.66;;;5.57;100.00
15272;BME280;7737;51.578;7.268;2023-03-16T07:23:30;101110.16;;;5.60;100.00
15272;BME280;7737;51.578;7.268;2023-03-16T07:25:57;101111.84;;;5.64;100.00
15272;BME280;7737;51.578;7.268;2023-03-16T07:28:24;101106.25;;;5.76;100.00
15272;BME280;7737;51.578;7.268;2023-03-16T07:30:50;101105.50;;;5.71;100.00
15272;BME280;7737;51.578;7.268;2023-03-16T07:33:17;101098.34;;;5.76;100.00
15272;BME280;7737;51.578;7.268;2023-03-16T07:35:45;101095.34;;;5.91;100.00
15272;BME280;7737;51.578;7.268;2023-03-16T07:38:11;101098.91;;;5.90;100.00
15272;BME280;7737;51.578;7.268;2023-03-16T07:40:39;101098.00;;;5.91;100.00
15272;BME280;7737;51.578;7.268;2023-03-16T07:43:06;101095.16;;;6.00;100.00
15272;BME280;7737;51.578;7.268;2023-03-16T07:45:33;101083.56;;;6.05;100.00
15272;BME280;7737;51.578;7.268;2023-03-16T07:48:00;101084.06;;;6.21;100.00
15272;BME280;7737;51.578;7.268;2023-03-16T07:50:26;101080.59;;;6.19;100.00
15272;BME280;7737;51.578;7.268;2023-03-16T07:52:53;101076.78;;;6.29;100.00
15272;BME280;7737;51.578;7.268;2023-03-16T07:55:20;101082.22;;;6.23;100.00
15272;BME280;7737;51.578;7.268;2023-03-16T07:57:48;101084.44;;;6.40;100.00
15272;BME280;7737;51.578;7.268;2023-03-16T08:00:15;101070.44;;;6.36;100.00
15272;BME280;7737;51.578;7.268;2023-03-16T08:02:44;101073.75;;;6.44;100.00
15272;BME280;7737;51.578;7.268;2023-03-16T08:05:11;101077.03;;;6.54;100.00
15272;BME280;7737;51.578;7.268;2023-03-16T08:07:39;101073.00;;;6.70;100.00
15272;BME280;7737;51.578;7.268;2023-03-16T08:10:06;101058.03;;;6.70;100.00
15272;BME280;7737;51.578;7.268;2023-03-16T08:12:33;101047.72;;;6.92;100.00
15272;BME280;7737;51.578;7.268;2023-03-16T08:15:01;101042.06;;;6.75;100.00
15272;BME280;7737;51.578;7.268;2023-03-16T08:17:28;101037.31;;;6.86;100.00
15272;BME280;7737;51.578;7.268;2023-03-16T08:19:55;101039.94;;;6.88;100.00
15272;BME280;7737;51.578;7.268;2023-03-16T08:22:22;101030.75;;;6.99;100.00
15272;BME280;7737;51.578;7.268;2023-03-16T08:24:50;101025.88;;;7.15;100.00
15272;BME280;7737;51.578;7.268;2023-03-16T08:27:17;101029.22;;;7.21;100.00
15272;BME280;7737;51.578;7.268;2023-03-16T08:29:44;101023.22;;;7.15;100.00
15272;BME280;7737;51.578;7.268;2023-03-16T08:32:12;101008.94;;;7.22;100.00
15272;BME280;7737;51.578;7.268;2023-03-16T08:34:39;101005.16;;;7.30;100.00
15272;BME280;7737;51.578;7.268;2023-03-16T08:37:05;101018.31;;;7.32;100.00
15272;BME280;7737;51.578;7.268;2023-03-16T08:39:32;101015.47;;;7.38;100.00
15272;BME280;7737;51.578;7.268;2023-03-16T08:42:00;101014.13;;;7.25;100.00
15272;BME280;7737;51.578;7.268;2023-03-16T08:44:26;101023.59;;;7.32;100.00
15272;BME280;7737;51.578;7.268;2023-03-16T08:46:53;101017.88;;;7.46;100.00
15272;BME280;7737;51.578;7.268;2023-03-16T08:49:21;101024.69;;;7.53;100.00
15272;BME280;7737;51.578;7.268;2023-03-16T08:51:48;101014.00;;;7.56;100.00
15272;BME280;7737;51.578;7.268;2023-03-16T08:54:15;101019.72;;;7.70;100.00
15272;BME280;7737;51.578;7.268;2023-03-16T08:56:42;101011.31;;;7.57;100.00
15272;BME280;7737;51.578;7.268;2023-03-16T08:59:08;101006.78;;;7.61;100.00
15272;BME280;7737;51.578;7.268;2023-03-16T09:01:35;101004.03;;;7.64;100.00
15272;BME280;7737;51.578;7.268;2023-03-16T09:04:02;101004.59;;;7.73;99.81
15272;BME280;7737;51.578;7.268;2023-03-16T09:06:30;101014.38;;;7.71;100.00
15272;BME280;7737;51.578;7.268;2023-03-16T09:08:56;101011.91;;;7.65;100.00
15272;BME280;7737;51.578;7.268;2023-03-16T09:11:23;101017.94;;;7.70;100.00
15272;BME280;7737;51.578;7.268;2023-03-16T09:13:52;101019.31;;;7.56;100.00
15272;BME280;7737;51.578;7.268;2023-03-16T09:16:19;101027.50;;;7.48;100.00
15272;BME280;7737;51.578;7.268;2023-03-16T09:18:49;101019.25;;;7.57;100.00
15272;BME280;7737;51.578;7.268;2023-03-16T09:21:16;101023.81;;;7.52;100.00
15272;BME280;7737;51.578;7.268;2023-03-16T09:23:45;101025.47;;;7.56;100.00
15272;BME280;7737;51.578;7.268;2023-03-16T09:26:12;101023.53;;;7.61;100.00
15272;BME280;7737;51.578;7.268;2023-03-16T09:28:40;101032.38;;;7.60;100.00
15272;BME280;7737;51.578;7.268;2023-03-16T09:31:08;101024.88;;;7.47;99.97
15272;BME280;7737;51.578;7.268;2023-03-16T09:33:34;101027.06;;;7.60;100.00
15272;BME280;7737;51.578;7.268;2023-03-16T09:36:01;101033.31;;;7.59;100.00
15272;BME280;7737;51.578;7.268;2023-03-16T09:38:28;101023.25;;;7.70;99.94
15272;BME280;7737;51.578;7.268;2023-03-16T09:41:00;101024.78;;;7.76;99.69
15272;BME280;7737;51.578;7.268;2023-03-16T09:43:42;101016.22;;;7.69;100.00
15272;BME280;7737;51.578;7.268;2023-03-16T09:46:20;101011.94;;;7.91;99.46
15272;BME280;7737;51.578;7.268;2023-03-16T09:48:50;101009.63;;;8.07;99.77
15272;BME280;7737;51.578;7.268;2023-03-16T09:51:19;101002.16;;;8.18;98.69
15272;BME280;7737;51.578;7.268;2023-03-16T09:53:51;101000.16;;;8.25;99.80
15272;BME280;7737;51.578;7.268;2023-03-16T09:56:29;100993.06;;;8.27;97.93
15272;BME280;7737;51.578;7.268;2023-03-16T09:58:57;100990.69;;;8.44;98.83
15272;BME280;7737;51.578;7.268;2023-03-16T10:01:33;100993.75;;;8.56;98.69
15272;BME280;7737;51.578;7.268;2023-03-16T10:04:15;100986.66;;;8.57;97.89
15272;BME280;7737;51.578;7.268;2023-03-16T10:06:52;100985.88;;;8.55;97.64
15272;BME280;7737;51.578;7.268;2023-03-16T10:09:27;100984.41;;;8.46;97.36
15272;BME280;7737;51.578;7.268;2023-03-16T10:11:59;100979.88;;;8.73;96.94
15272;BME280;7737;51.578;7.268;2023-03-16T10:14:32;100990.78;;;8.87;97.44
15272;BME280;7737;51.578;7.268;2023-03-16T10:17:06;100963.03;;;8.74;95.50
15272;BME280;7737;51.578;7.268;2023-03-16T10:19:40;100980.88;;;8.92;96.44
15272;BME280;7737;51.578;7.268;2023-03-16T10:22:15;100976.16;;;8.77;96.03
15272;BME280;7737;51.578;7.268;2023-03-16T10:24:51;100982.28;;;9.02;97.09
15272;BME280;7737;51.578;7.268;2023-03-16T10:27:27;100971.91;;;8.96;97.22
15272;BME280;7737;51.578;7.268;2023-03-16T10:29:54;100962.03;;;9.00;96.13
15272;BME280;7737;51.578;7.268;2023-03-16T10:32:21;100969.25;;;8.96;97.01
15272;BME280;7737;51.578;7.268;2023-03-16T10:34:56;100958.41;;;9.02;95.82
15272;BME280;7737;51.578;7.268;2023-03-16T10:37:24;100961.47;;;9.13;95.69
15272;BME280;7737;51.578;7.268;2023-03-16T10:39:52;100974.25;;;9.04;97.13
15272;BME280;7737;51.578;7.268;2023-03-16T10:42:20;100981.09;;;9.09;97.38
15272;BME280;7737;51.578;7.268;2023-03-16T10:44:48;100976.25;;;9.21;97.20
15272;BME280;7737;51.578;7.268;2023-03-16T10:47:21;100975.69;;;9.12;97.07
15272;BME280;7737;51.578;7.268;2023-03-16T10:49:49;100975.56;;;9.15;97.10
15272;BME280;7737;51.578;7.268;2023-03-16T10:52:18;100960.56;;;9.36;97.42
15272;BME280;7737;51.578;7.268;2023-03-16T10:54:50;100950.75;;;9.16;96.46
15272;BME280;7737;51.578;7.268;2023-03-16T10:57:23;100953.50;;;9.13;96.76
15272;BME280;7737;51.578;7.268;2023-03-16T10:59:53;100949.44;;;9.27;97.76
15272;BME280;7737;51.578;7.268;2023-03-16T11:02:23;100940.66;;;9.26;97.45
15272;BME280;7737;51.578;7.268;2023-03-16T11:04:51;100934.84;;;9.16;97.93
15272;BME280;7737;51.578;7.268;2023-03-16T11:07:20;100941.31;;;9.09;98.14
15272;BME280;7737;51.578;7.268;2023-03-16T11:09:49;100936.88;;;9.32;99.00
15272;BME280;7737;51.578;7.268;2023-03-16T11:12:23;100923.06;;;9.24;98.04
15272;BME280;7737;51.578;7.268;2023-03-16T11:14:51;100911.63;;;9.43;98.19
15272;BME280;7737;51.578;7.268;2023-03-16T11:17:23;100916.03;;;9.23;97.85
15272;BME280;7737;51.578;7.268;2023-03-16T11:19:57;100910.22;;;9.35;99.02
15272;BME280;7737;51.578;7.268;2023-03-16T11:22:26;100899.88;;;9.29;96.35
15272;BME280;7737;51.578;7.268;2023-03-16T11:24:59;100904.00;;;9.36;96.79
15272;BME280;7737;51.578;7.268;2023-03-16T11:27:33;100892.94;;;9.25;95.98
15272;BME280;7737;51.578;7.268;2023-03-16T11:30:08;100896.81;;;9.38;96.70
15272;BME280;7737;51.578;7.268;2023-03-16T11:32:37;100887.53;;;9.48;95.78
15272;BME280;7737;51.578;7.268;2023-03-16T11:35:11;100869.19;;;9.63;98.16
15272;BME280;7737;51.578;7.268;2023-03-16T11:37:47;100873.09;;;9.75;96.50
15272;BME280;7737;51.578;7.268;2023-03-16T11:40:24;100863.69;;;9.68;95.21
15272;BME280;7737;51.578;7.268;2023-03-16T11:43:00;100863.38;;;10.14;96.35
15272;BME280;7737;51.578;7.268;2023-03-16T11:45:36;100852.47;;;10.20;95.81
15272;BME280;7737;51.578;7.268;2023-03-16T11:48:28;100847.97;;;10.02;95.51
15272;BME280;7737;51.578;7.268;2023-03-16T11:51:03;100840.00;;;10.41;95.17
15272;BME280;7737;51.578;7.268;2023-03-16T11:53:54;100827.53;;;10.43;94.28
15272;BME280;7737;51.578;7.268;2023-03-16T11:56:32;100817.22;;;10.35;94.48
15272;BME280;7737;51.578;7.268;2023-03-16T12:02:28;100809.84;;;10.78;92.86
15272;BME280;7737;51.578;7.268;2023-03-16T12:05:21;100810.44;;;11.01;93.12
15272;BME280;7737;51.578;7.268;2023-03-16T12:07:56;100803.47;;;10.82;92.35
15272;BME280;7737;51.578;7.268;2023-03-16T12:10:28;100788.41;;;11.17;91.70
15272;BME280;7737;51.578;7.268;2023-03-16T12:13:16;100757.50;;;11.14;89.66
15272;BME280;7737;51.578;7.268;2023-03-16T12:15:47;100747.75;;;11.47;89.45
15272;BME280;7737;51.578;7.268;2023-03-16T12:18:20;100751.28;;;11.48;90.00
15272;BME280;7737;51.578;7.268;2023-03-16T12:20:53;100739.59;;;11.50;87.36
15272;BME280;7737;51.578;7.268;2023-03-16T12:23:27;100725.59;;;11.47;87.29
15272;BME280;7737;51.578;7.268;2023-03-16T12:25:56;100725.94;;;11.74;88.56
15272;BME280;7737;51.578;7.268;2023-03-16T12:28:26;100709.41;;;11.51;86.67
15272;BME280;7737;51.578;7.268;2023-03-16T12:30:59;100698.91;;;11.48;85.19
15272;BME280;7737;51.578;7.268;2023-03-16T12:33:47;100683.00;;;11.80;86.20
15272;BME280;7737;51.578;7.268;2023-03-16T12:36:44;100676.31;;;11.73;84.77
15272;BME280;7737;51.578;7.268;2023-03-16T12:39:17;100651.13;;;11.78;83.33
15272;BME280;7737;51.578;7.268;2023-03-16T12:41:58;100630.94;;;11.74;81.65
15272;BME280;7737;51.578;7.268;2023-03-16T12:44:32;100639.03;;;11.73;82.62
15272;BME280;7737;51.578;7.268;2023-03-16T12:47:08;100642.00;;;11.67;81.74
15272;BME280;7737;51.578;7.268;2023-03-16T12:49:41;100639.50;;;11.63;82.03
15272;BME280;7737;51.578;7.268;2023-03-16T12:52:08;100644.53;;;11.70;82.54
15272;BME280;7737;51.578;7.268;2023-03-16T12:54:48;100616.81;;;11.56;80.50
15272;BME280;7737;51.578;7.268;2023-03-16T12:57:16;100642.53;;;11.89;83.08
15272;BME280;7737;51.578;7.268;2023-03-16T12:59:45;100628.25;;;11.58;82.58
15272;BME280;7737;51.578;7.268;2023-03-16T13:02:16;100616.00;;;11.72;81.19
15272;BME280;7737;51.578;7.268;2023-03-16T13:04:47;100621.50;;;11.69;82.55
15272;BME280;7737;51.578;7.268;2023-03-16T13:07:17;100605.00;;;11.93;81.74
15272;BME280;7737;51.578;7.268;2023-03-16T13:09:48;100600.63;;;11.77;81.73
15272;BME280;7737;51.578;7.268;2023-03-16T13:12:22;100604.63;;;11.99;81.63
15272;BME280;7737;51.578;7.268;2023-03-16T13:14:50;100590.19;;;12.03;80.51